Угольный

Карта отелей и гостиниц, располагающихся рядом с аэропортом Угольный :

Угольный
Анадырь
Чукотский автономный округ 64° 44' 5.82" N, 177° 44' 29.58" E
Код аэродрома ИКАО
UHMA
Код аэродрома RU
УХМА
Координаты
N64.73495° E177.74155°
Превышение над уровнем моря
59
Основная полоса
01/19
Курс магнитный
012,2/192,2
Длина основной ВПП
3500
Ширина основной ВПП
60
Покрытие основной ВПП
Твёрдое
Освещение ВПП
Постоянное
Тип: 
Аэродром
Класс аэродрома: 
Международный
Принадлежность: 
ГА
Статус: 
Действующий
Страна: 
Россия
Регион: 
Чукотский автономный округ
Город: 
Анадырь
Дополнительная информация: 
Военный индекс: ЬХМА/XHMA. Оператор: нет данных.
Схемы аэропортов: 
Погода: 

Авиационная погода в Угольном

Регион: 
Погода METAR: 
UHMA 261800Z 36006MPS CAVOK M28/M33 Q1026 R01/////// NOSIG RMK TDZ R01/36006G08MPS END R01/01007G10MPS QFE766/1021
Время наблюдения
2021-02-26T18:00:00Z
Температура C
-28.0
Точка росы
-33.0
Направление ветра
360
Скорость ветра (узлы)
12
Метео видимость
6.21
Явления погоды
Условия полета
VFR
Аэропорт подробнее: 

Найти трансфер

С помощью этой формы Вы можете найти трансфер из аэропорта Угольный в город, аэропорт или вокзал:

Карта места

Javascript is required to view this map.

Погода в аэропортах:

Авиационная погода в аэропорту Имени Алексея Леонова

Регион: 
Погода METAR: 
UNEE 261730Z 21005MPS 4800 -SHSN SCT040CB M24/M28 Q1031 R23/450545 NOSIG RMK QFE750
Время наблюдения
2021-02-26T17:30:00Z
Температура C
-24.0
Точка росы
-28.0
Направление ветра
210
Скорость ветра (узлы)
10
Метео видимость
2.98
Явления погоды
-SHSN
Условия полета
IFR
Аэропорт подробнее: 

Авиационная погода в Алматы

Регион: 
Погода METAR: 
UAAA 261730Z 16002MPS 1200 R23R/P2000D R23L/P2000 BR FU SCT100 BKN200 M13/M16 Q1028 R23R/CLRD65 R23L/91//60 NOSIG
Время наблюдения
2021-02-26T17:30:00Z
Температура C
-13.0
Точка росы
-16.0
Направление ветра
160
Скорость ветра (узлы)
4
Метео видимость
0.75
Явления погоды
FU BR
Условия полета
LIFR
Аэропорт подробнее: 

Авиационная погода в Ботсфьорде

Регион: 
Погода METAR: 
ENBS 261750Z 35020G30KT 9999 -DRSN FEW010 BKN017 M01/M03 Q1003
Время наблюдения
2021-02-26T17:50:00Z
Температура C
-1.0
Точка росы
-3.0
Направление ветра
350
Скорость ветра (узлы)
20
Метео видимость
6.21
Явления погоды
-DRSN
Условия полета
MVFR

Авиационная погода в Берлевоге

Регион: 
Погода METAR: 
ENBV 261750Z 33019KT 9999 -SHSN BKN020 01/M03 Q1005
Время наблюдения
2021-02-26T17:50:00Z
Температура C
1.0
Точка росы
-3.0
Направление ветра
330
Скорость ветра (узлы)
19
Метео видимость
6.21
Явления погоды
-SHSN
Условия полета
MVFR